Time;durP1;ratioP1;P1;durP2;ratioP2;P2;SDS_P1;SDS_P2;PMS_P1;PMS_P2;Temp;Humidity;BMP_temperature;BMP_pressure;BME280_temperature;BME280_humidity;BME280_pressure;Samples;Min_cycle;Max_cycle;Signal;HPM_P1;HPM_P2
2023/04/10 00:00:32;;;;;;;49.22;31.75;;;6.60;99.90;;;;;;5038791;28;20490;-71
2023/04/10 00:03:02;;;;;;;47.47;31.17;;;6.60;99.90;;;;;;5038787;28;20048;-71
2023/04/10 00:05:28;;;;;;;49.42;32.20;;;6.50;99.90;;;;;;5024117;28;20609;-72
2023/04/10 00:07:54;;;;;;;47.80;30.95;;;6.50;99.90;;;;;;5040143;28;20053;-71
2023/04/10 00:10:20;;;;;;;49.83;33.38;;;6.50;99.90;;;;;;5038072;28;20049;-70
2023/04/10 00:12:45;;;;;;;48.38;32.25;;;6.50;99.90;;;;;;5023813;28;20056;-69
2023/04/10 00:15:15;;;;;;;49.10;32.88;;;6.50;99.90;;;;;;5020068;28;20037;-70
2023/04/10 00:17:40;;;;;;;49.92;34.70;;;6.40;99.90;;;;;;5023222;28;20049;-71
2023/04/10 00:20:07;;;;;;;54.33;34.08;;;6.40;99.90;;;;;;5036540;28;20616;-70
2023/04/10 00:22:33;;;;;;;51.75;34.42;;;6.40;99.90;;;;;;5038620;28;20120;-71
2023/04/10 00:24:58;;;;;;;51.15;34.60;;;6.80;99.90;;;;;;5037942;28;20373;-71
2023/04/10 00:27:24;;;;;;;52.83;34.78;;;6.40;99.90;;;;;;5023274;28;20044;-70
2023/04/10 00:29:50;;;;;;;54.38;34.72;;;6.40;99.90;;;;;;5021111;28;20045;-71
2023/04/10 00:32:15;;;;;;;54.78;35.58;;;6.40;99.90;;;;;;5034599;28;20052;-70
2023/04/10 00:34:43;;;;;;;49.03;33.95;;;6.40;99.90;;;;;;5036476;28;20131;-71
2023/04/10 00:37:08;;;;;;;52.25;35.45;;;6.70;99.90;;;;;;5037461;28;20194;-70
2023/04/10 00:39:34;;;;;;;53.65;36.08;;;6.30;99.90;;;;;;5023726;28;20542;-70
2023/04/10 00:42:01;;;;;;;54.17;34.75;;;6.40;99.90;;;;;;5018118;28;20523;-72
2023/04/10 00:44:27;;;;;;;55.58;36.80;;;6.30;99.90;;;;;;5035560;28;20072;-71
2023/04/10 00:46:55;;;;;;;55.72;36.28;;;6.50;99.90;;;;;;5038869;28;20061;-72
2023/04/10 00:49:20;;;;;;;53.40;35.97;;;6.30;99.90;;;;;;5036974;28;20045;-71
2023/04/10 00:51:47;;;;;;;56.92;38.13;;;6.20;99.90;;;;;;5021048;28;20055;-70
2023/04/10 00:54:14;;;;;;;57.92;38.22;;;6.70;99.90;;;;;;5035980;28;20073;-71
2023/04/10 00:56:40;;;;;;;57.55;38.90;;;6.20;99.90;;;;;;5007905;28;20143;-69
2023/04/10 00:59:06;;;;;;;55.80;37.55;;;6.20;99.90;;;;;;5021805;28;20045;-71
2023/04/10 01:01:32;;;;;;;57.65;38.13;;;6.20;99.90;;;;;;5021498;28;20450;-70
2023/04/10 01:04:01;;;;;;;55.35;37.90;;;6.10;99.90;;;;;;5037206;28;20049;-71
2023/04/10 01:06:48;;;;;;;54.97;36.38;;;6.10;99.90;;;;;;5033301;28;20045;-71
2023/04/10 01:09:38;;;;;;;55.00;36.88;;;6.10;99.90;;;;;;5035931;28;20044;-71
2023/04/10 01:12:36;;;;;;;57.10;36.85;;;6.10;99.90;;;;;;5034300;28;20850;-71
2023/04/10 01:15:02;;;;;;;;;;;6.10;99.90;;;;;;5035243;28;20114;-70
2023/04/10 01:17:42;;;;;;;55.63;35.73;;;6.00;99.90;;;;;;5033944;28;19928;-72
2023/04/10 01:20:31;;;;;;;52.38;36.30;;;6.00;99.90;;;;;;5050552;28;20055;-70
2023/04/10 01:23:25;;;;;;;54.35;37.00;;;6.00;99.90;;;;;;5037826;28;20041;-71
2023/04/10 01:26:02;;;;;;;52.55;36.30;;;6.00;99.90;;;;;;5031057;28;20061;-70
2023/04/10 01:28:49;;;;;;;57.05;38.00;;;5.90;99.90;;;;;;5037200;28;20048;-70
2023/04/10 01:31:25;;;;;;;56.30;37.50;;;5.90;99.90;;;;;;5036925;28;20412;-71
2023/04/10 01:34:01;;;;;;;55.45;38.30;;;5.90;99.90;;;;;;5035179;28;20053;-71
2023/04/10 01:36:50;;;;;;;57.47;38.15;;;6.30;99.90;;;;;;5018847;28;20049;-71
2023/04/10 01:39:21;;;;;;;53.97;36.72;;;5.80;99.90;;;;;;5053200;28;20044;-71
2023/04/10 01:41:51;;;;;;;55.67;38.83;;;5.90;99.90;;;;;;5037613;28;20645;-70
2023/04/10 01:44:21;;;;;;;58.20;39.25;;;5.90;99.90;;;;;;5026666;28;20444;-71
2023/04/10 01:46:49;;;;;;;55.50;36.47;;;5.90;99.90;;;;;;5029991;28;20055;-71
2023/04/10 01:49:24;;;;;;;53.35;37.40;;;5.90;99.90;;;;;;5039253;28;20530;-71
2023/04/10 01:51:53;;;;;;;52.65;36.80;;;5.90;99.90;;;;;;5035563;28;20080;-71
2023/04/10 01:54:20;;;;;;;56.50;37.75;;;5.80;99.90;;;;;;5033500;28;20053;-71
2023/04/10 01:56:46;;;;;;;54.33;36.45;;;5.80;99.90;;;;;;5051246;28;20060;-71
2023/04/10 01:59:12;;;;;;;53.83;35.70;;;5.80;99.90;;;;;;5001513;28;20045;-72
2023/04/10 02:01:38;;;;;;;52.78;36.00;;;5.80;99.90;;;;;;5034668;28;20140;-70
2023/04/10 02:04:04;;;;;;;53.97;37.38;;;5.80;99.90;;;;;;5036504;28;20072;-70
2023/04/10 02:06:47;;;;;;;54.22;36.58;;;5.80;99.90;;;;;;5020111;28;20168;-71
2023/04/10 02:09:27;;;;;;;57.35;38.38;;;5.80;99.90;;;;;;5050201;28;20636;-72
2023/04/10 02:12:03;;;;;;;50.75;35.53;;;5.70;99.90;;;;;;5019034;28;20663;-72
2023/04/10 02:14:31;;;;;;;54.30;37.20;;;5.70;99.90;;;;;;5034106;28;20159;-71
2023/04/10 02:17:00;;;;;;;51.22;35.83;;;5.70;99.90;;;;;;5035511;28;20085;-71
2023/04/10 02:19:27;;;;;;;51.05;36.30;;;5.70;99.90;;;;;;5018430;28;20049;-71
2023/04/10 02:21:53;;;;;;;52.33;37.88;;;5.70;99.90;;;;;;5037870;28;20048;-70
2023/04/10 02:24:23;;;;;;;56.25;37.17;;;5.80;99.90;;;;;;5051176;28;20135;-71
2023/04/10 02:26:51;;;;;;;50.67;35.63;;;5.70;99.90;;;;;;5050475;28;20045;-72
2023/04/10 02:29:17;;;;;;;49.83;35.33;;;5.70;99.90;;;;;;5019689;28;20049;-71
2023/04/10 02:31:44;;;;;;;54.72;37.47;;;5.80;99.90;;;;;;5049765;28;20050;-71
2023/04/10 02:34:13;;;;;;;54.85;35.58;;;5.60;99.90;;;;;;5035128;28;20053;-71
2023/04/10 02:36:39;;;;;;;56.08;36.72;;;5.60;99.90;;;;;;5036188;28;20045;-70
2023/04/10 02:39:07;;;;;;;51.85;35.20;;;5.60;99.90;;;;;;5035113;28;20059;-70
2023/04/10 02:41:33;;;;;;;49.83;35.83;;;5.60;99.90;;;;;;5038215;28;20084;-71
2023/04/10 02:43:58;;;;;;;49.42;35.38;;;5.60;99.90;;;;;;5037338;28;20132;-71
2023/04/10 02:46:30;;;;;;;47.95;34.15;;;5.60;99.90;;;;;;5037948;28;20047;-69
2023/04/10 02:48:56;;;;;;;49.60;34.72;;;5.60;99.90;;;;;;5019085;28;20053;-70
2023/04/10 02:51:21;;;;;;;51.20;35.40;;;5.50;99.90;;;;;;5005108;28;20099;-70
2023/04/10 02:53:47;;;;;;;50.17;34.42;;;5.50;99.90;;;;;;5000590;28;20040;-70
2023/04/10 02:56:13;;;;;;;49.60;32.40;;;5.50;99.90;;;;;;5038485;28;20069;-70
2023/04/10 02:58:39;;;;;;;47.35;33.58;;;5.50;99.90;;;;;;5007740;28;20068;-70
2023/04/10 03:01:06;;;;;;;47.90;34.10;;;5.40;99.90;;;;;;5040948;28;20545;-69
2023/04/10 03:03:32;;;;;;;47.67;32.60;;;5.50;99.90;;;;;;5037276;28;20056;-72
2023/04/10 03:05:58;;;;;;;48.53;32.97;;;5.40;99.90;;;;;;5019843;28;20137;-69
2023/04/10 03:08:23;;;;;;;47.85;32.63;;;5.40;99.90;;;;;;5037670;28;20053;-71
2023/04/10 03:10:49;;;;;;;50.60;32.88;;;5.30;99.90;;;;;;5038044;28;20068;-70
2023/04/10 03:13:24;;;;;;;46.63;33.15;;;5.40;99.90;;;;;;5052633;28;20175;-73
2023/04/10 03:15:50;;;;;;;47.15;32.10;;;5.40;99.90;;;;;;5046662;28;20041;-69
2023/04/10 03:18:19;;;;;;;46.17;31.85;;;5.30;99.90;;;;;;5040764;28;20048;-72
2023/04/10 03:20:49;;;;;;;44.78;31.88;;;5.30;99.90;;;;;;5041453;28;20061;-71
2023/04/10 03:23:16;;;;;;;48.38;32.20;;;5.30;99.90;;;;;;5039354;28;20052;-70
2023/04/10 03:25:42;;;;;;;41.40;30.10;;;5.30;99.90;;;;;;5037667;28;20049;-71
2023/04/10 03:28:08;;;;;;;45.28;31.08;;;5.30;99.90;;;;;;5053265;28;20049;-71
2023/04/10 03:30:35;;;;;;;47.08;30.92;;;5.90;99.90;;;;;;5014813;28;20045;-71
2023/04/10 03:33:02;;;;;;;46.53;31.15;;;5.60;99.90;;;;;;5021224;28;20045;-71
2023/04/10 03:35:28;;;;;;;44.42;31.10;;;5.30;99.90;;;;;;5038436;28;20044;-72
2023/04/10 03:37:54;;;;;;;45.72;30.00;;;6.50;99.90;;;;;;5024061;28;20063;-70
2023/04/10 03:40:20;;;;;;;44.67;30.70;;;5.30;99.90;;;;;;5025858;28;20091;-70
2023/04/10 03:42:45;;;;;;;44.33;30.50;;;5.30;99.90;;;;;;5037729;28;20062;-69
2023/04/10 03:45:11;;;;;;;43.55;29.23;;;5.70;99.90;;;;;;5055665;28;20048;-71
2023/04/10 03:47:40;;;;;;;43.65;29.70;;;5.30;99.90;;;;;;5057111;28;20048;-68
2023/04/10 03:50:07;;;;;;;46.05;29.98;;;5.30;99.90;;;;;;5042437;28;20049;-70
2023/04/10 03:52:33;;;;;;;44.60;29.63;;;5.40;99.90;;;;;;5024472;28;20049;-71
2023/04/10 03:54:58;;;;;;;47.65;31.08;;;5.40;99.90;;;;;;5054520;28;20052;-70
2023/04/10 03:57:24;;;;;;;41.33;28.75;;;5.40;99.90;;;;;;5055296;28;20644;-70
2023/04/10 03:59:50;;;;;;;43.75;31.10;;;5.40;99.90;;;;;;5042696;28;20119;-70
2023/04/10 04:02:17;;;;;;;40.35;28.08;;;5.40;99.90;;;;;;5037485;28;20131;-70
2023/04/10 04:04:49;;;;;;;45.60;29.65;;;5.40;99.90;;;;;;5043623;28;20119;-71
2023/04/10 04:07:14;;;;;;;40.60;28.42;;;5.40;99.90;;;;;;5038892;28;20040;-70
2023/04/10 04:09:40;;;;;;;39.80;27.38;;;5.40;99.90;;;;;;5015271;28;20086;-70
2023/04/10 04:12:10;;;;;;;42.53;27.90;;;5.40;99.90;;;;;;5040346;28;20426;-71
2023/04/10 04:14:39;;;;;;;41.17;28.70;;;5.40;99.90;;;;;;5040908;28;20098;-70
2023/04/10 04:17:06;;;;;;;41.97;27.45;;;5.40;99.90;;;;;;5035893;28;20052;-70
2023/04/10 04:19:32;;;;;;;39.58;26.33;;;5.40;99.90;;;;;;5055678;28;20087;-71
2023/04/10 04:21:59;;;;;;;40.33;26.70;;;5.40;99.90;;;;;;5003409;28;20152;-71
2023/04/10 04:24:30;;;;;;;42.42;27.35;;;5.50;99.90;;;;;;5055513;28;20041;-71
2023/04/10 04:26:56;;;;;;;40.60;26.90;;;5.60;99.90;;;;;;5020615;28;20056;-70
2023/04/10 04:29:23;;;;;;;36.88;25.88;;;5.50;99.90;;;;;;5022268;28;20048;-70
2023/04/10 04:31:49;;;;;;;37.50;24.40;;;5.40;99.90;;;;;;5036624;28;20132;-72
2023/04/10 04:34:15;;;;;;;40.38;26.45;;;5.40;99.90;;;;;;5039100;28;20080;-71
2023/04/10 04:36:41;;;;;;;35.90;24.80;;;5.50;99.90;;;;;;5023408;28;20134;-70
2023/04/10 04:39:07;;;;;;;36.33;24.73;;;5.50;99.90;;;;;;5038638;28;20044;-72
2023/04/10 04:41:33;;;;;;;35.05;24.05;;;5.50;99.90;;;;;;5038484;28;20041;-71
2023/04/10 04:44:00;;;;;;;35.85;25.40;;;5.50;99.90;;;;;;5022066;28;20117;-72
2023/04/10 04:46:29;;;;;;;35.42;23.95;;;5.50;99.90;;;;;;5024232;28;20044;-72
2023/04/10 04:48:55;;;;;;;37.05;24.45;;;5.50;99.90;;;;;;5025669;28;20049;-72
2023/04/10 04:51:21;;;;;;;37.88;24.60;;;5.50;99.90;;;;;;5023158;28;20214;-70
2023/04/10 04:53:47;;;;;;;32.95;22.25;;;5.60;99.90;;;;;;5036826;28;20052;-71
2023/04/10 04:56:13;;;;;;;34.75;23.52;;;5.60;99.90;;;;;;5038765;28;20357;-72
2023/04/10 04:58:41;;;;;;;34.17;23.35;;;5.60;99.90;;;;;;5035249;28;20134;-74
2023/04/10 05:01:07;;;;;;;33.17;22.00;;;5.60;99.90;;;;;;5039705;28;20048;-72
2023/04/10 05:03:33;;;;;;;30.98;22.08;;;5.60;99.90;;;;;;5023131;28;20037;-73
2023/04/10 05:06:10;;;;;;;34.08;22.42;;;5.60;99.90;;;;;;5022092;28;20052;-73
2023/04/10 05:08:38;;;;;;;30.40;21.02;;;5.60;99.90;;;;;;5019363;28;20069;-72
2023/04/10 05:11:05;;;;;;;33.40;21.65;;;5.60;99.90;;;;;;5022970;28;20083;-75
2023/04/10 05:13:32;;;;;;;29.85;20.63;;;5.70;99.90;;;;;;5035383;28;20038;-72
2023/04/10 05:16:08;;;;;;;31.38;21.20;;;5.70;99.90;;;;;;5052145;28;20048;-72
2023/04/10 05:18:34;;;;;;;32.75;21.35;;;5.70;99.90;;;;;;5052829;28;20056;-73
2023/04/10 05:21:00;;;;;;;29.52;21.25;;;5.70;99.90;;;;;;5033211;28;20073;-74
2023/04/10 05:23:26;;;;;;;28.90;19.98;;;5.70;99.90;;;;;;5038052;28;20589;-71
2023/04/10 05:25:52;;;;;;;28.67;19.92;;;5.80;99.90;;;;;;5022197;28;20072;-73
2023/04/10 05:28:17;;;;;;;29.38;20.10;;;5.80;99.90;;;;;;5039146;28;20674;-72
2023/04/10 05:30:43;;;;;;;29.50;20.13;;;5.80;99.90;;;;;;5021960;28;20091;-71
2023/04/10 05:33:09;;;;;;;26.23;18.85;;;5.80;99.90;;;;;;5006619;28;20129;-73
2023/04/10 05:35:35;;;;;;;26.75;19.63;;;5.90;99.90;;;;;;5021077;28;20060;-72
2023/04/10 05:38:01;;;;;;;29.92;19.85;;;5.90;99.90;;;;;;5018810;28;20055;-72
2023/04/10 05:40:29;;;;;;;27.02;18.70;;;5.90;99.90;;;;;;5038767;28;20053;-72
2023/04/10 05:42:56;;;;;;;25.52;18.38;;;6.00;99.90;;;;;;5037525;28;20061;-73
2023/04/10 05:45:27;;;;;;;28.98;18.85;;;6.00;99.90;;;;;;5035979;28;20507;-74
2023/04/10 05:47:53;;;;;;;27.20;19.05;;;6.00;99.90;;;;;;4978368;28;20049;-75
2023/04/10 05:50:24;;;;;;;24.95;18.45;;;6.80;99.90;;;;;;4971100;28;20087;-76
2023/04/10 05:53:00;;;;;;;25.55;17.65;;;6.10;99.90;;;;;;5010653;28;20542;-77
2023/04/10 05:55:26;;;;;;;26.47;17.77;;;6.10;99.90;;;;;;4985941;28;20054;-76
2023/04/10 05:57:55;;;;;;;23.65;16.50;;;6.20;99.90;;;;;;5001764;28;20300;-75
2023/04/10 06:00:21;;;;;;;24.13;17.83;;;6.30;99.90;;;;;;5002615;28;20049;-76
2023/04/10 06:02:47;;;;;;;24.60;16.35;;;6.30;99.90;;;;;;5012509;28;20068;-77
2023/04/10 06:05:12;;;;;;;24.65;17.17;;;6.40;99.90;;;;;;5003349;28;20048;-76
2023/04/10 06:07:38;;;;;;;24.60;16.50;;;6.40;99.90;;;;;;4970822;28;20045;-77
2023/04/10 06:10:05;;;;;;;24.83;15.80;;;6.50;99.90;;;;;;5013414;28;20050;-78
2023/04/10 06:12:34;;;;;;;22.45;15.88;;;6.60;99.90;;;;;;5012059;28;20524;-77
2023/04/10 06:15:03;;;;;;;22.25;15.05;;;6.70;99.90;;;;;;4984006;28;20053;-77
2023/04/10 06:17:29;;;;;;;22.67;15.63;;;6.80;99.90;;;;;;5030391;28;20045;-77
2023/04/10 06:19:55;;;;;;;19.38;13.73;;;6.90;99.90;;;;;;5012132;28;20058;-77
2023/04/10 06:22:22;;;;;;;22.17;15.38;;;7.00;99.90;;;;;;5030050;28;20056;-75
2023/04/10 06:24:48;;;;;;;20.13;14.98;;;7.10;99.90;;;;;;4980416;28;20408;-76
2023/04/10 06:27:14;;;;;;;21.42;14.50;;;7.20;99.90;;;;;;5015450;28;21020;-77
2023/04/10 06:29:40;;;;;;;19.88;14.25;;;7.30;99.90;;;;;;5011976;28;20073;-77
2023/04/10 06:32:07;;;;;;;21.42;14.38;;;7.40;99.90;;;;;;5014422;28;20072;-77
2023/04/10 06:34:33;;;;;;;20.98;14.73;;;7.50;99.90;;;;;;5018199;28;20134;-76
2023/04/10 06:36:58;;;;;;;20.10;14.43;;;7.60;99.90;;;;;;4989305;28;20053;-76
2023/04/10 06:39:24;;;;;;;20.88;14.57;;;7.80;99.90;;;;;;5021940;28;20676;-77
2023/04/10 06:41:50;;;;;;;18.77;13.35;;;7.80;99.90;;;;;;5003469;28;20558;-77
2023/04/10 06:44:16;;;;;;;19.98;13.40;;;8.00;99.90;;;;;;5000310;28;20417;-77
2023/04/10 06:46:42;;;;;;;20.90;13.82;;;8.00;99.90;;;;;;4988268;28;20172;-77
2023/04/10 06:49:08;;;;;;;17.92;12.73;;;8.10;99.90;;;;;;5017338;28;20938;-76
2023/04/10 06:51:34;;;;;;;18.15;13.13;;;8.20;99.90;;;;;;4982673;28;20056;-77
2023/04/10 06:54:05;;;;;;;18.63;12.65;;;8.30;99.90;;;;;;5013900;28;20132;-75
2023/04/10 06:56:31;;;;;;;18.38;13.10;;;8.40;99.90;;;;;;5014911;28;20038;-78
2023/04/10 06:58:57;;;;;;;17.27;12.23;;;8.50;99.90;;;;;;4987163;28;20132;-76
2023/04/10 07:01:23;;;;;;;17.08;12.00;;;8.60;99.90;;;;;;5019405;28;20844;-77
2023/04/10 07:03:49;;;;;;;16.42;11.45;;;8.70;99.90;;;;;;5014703;28;20067;-77
2023/04/10 07:06:21;;;;;;;16.35;11.00;;;8.70;99.90;;;;;;4997944;28;20503;-74
2023/04/10 07:08:50;;;;;;;15.27;11.60;;;8.70;99.90;;;;;;4999198;28;20046;-74
2023/04/10 07:11:16;;;;;;;16.35;11.32;;;8.50;99.90;;;;;;5015466;28;20787;-74
2023/04/10 07:13:45;;;;;;;15.63;11.85;;;8.90;99.90;;;;;;5019905;28;20041;-73
2023/04/10 07:16:12;;;;;;;15.20;10.80;;;8.80;99.90;;;;;;4997749;28;20060;-74
2023/04/10 07:18:40;;;;;;;14.80;11.02;;;9.00;99.90;;;;;;4986472;28;20041;-75
2023/04/10 07:21:11;;;;;;;14.90;10.77;;;9.00;99.90;;;;;;4989840;28;20041;-73
2023/04/10 07:23:56;;;;;;;16.38;11.25;;;9.10;99.90;;;;;;5017549;28;20079;-73
2023/04/10 07:26:22;;;;;;;16.00;10.73;;;9.20;99.90;;;;;;5031078;28;20060;-74
2023/04/10 07:28:48;;;;;;;14.80;10.73;;;9.30;99.90;;;;;;5002676;28;20197;-74
2023/04/10 07:31:14;;;;;;;14.90;10.88;;;9.40;99.90;;;;;;4999468;28;20061;-74
2023/04/10 07:33:40;;;;;;;15.75;10.63;;;9.40;99.90;;;;;;5032540;28;20049;-74
2023/04/10 07:36:12;;;;;;;15.18;9.75;;;9.50;99.90;;;;;;5015282;28;20049;-74
2023/04/10 07:38:39;;;;;;;15.93;10.60;;;9.60;99.90;;;;;;5016614;28;20125;-74
2023/04/10 07:41:05;;;;;;;15.23;10.13;;;9.70;99.90;;;;;;5016481;28;20053;-75
2023/04/10 07:43:33;;;;;;;13.18;10.07;;;9.70;99.90;;;;;;4994849;28;20052;-73
2023/04/10 07:45:59;;;;;;;13.20;9.90;;;9.80;99.90;;;;;;5019304;28;20407;-74
2023/04/10 07:48:25;;;;;;;13.70;10.13;;;9.90;99.90;;;;;;4985994;28;20053;-74
2023/04/10 07:50:51;;;;;;;14.90;10.75;;;9.90;99.90;;;;;;5035069;28;20506;-74
2023/04/10 07:53:29;;;;;;;15.27;9.65;;;10.00;99.90;;;;;;5012387;28;20069;-73
2023/04/10 07:56:09;;;;;;;13.10;9.95;;;10.10;99.90;;;;;;4986231;28;20084;-75
2023/04/10 07:58:35;;;;;;;12.93;9.35;;;10.20;99.90;;;;;;4977760;28;20056;-74
2023/04/10 08:01:08;;;;;;;12.40;9.00;;;10.30;99.90;;;;;;4966057;28;20645;-75
2023/04/10 08:03:46;;;;;;;13.80;9.85;;;10.40;99.90;;;;;;5011600;28;20064;-74
2023/04/10 08:06:18;;;;;;;14.25;9.43;;;10.50;99.90;;;;;;4995870;28;20053;-73
2023/04/10 08:08:47;;;;;;;13.55;9.15;;;10.60;99.90;;;;;;5010099;28;20096;-75
2023/04/10 08:11:28;;;;;;;11.70;9.68;;;9.40;99.90;;;;;;4984596;28;20056;-74
2023/04/10 08:13:57;;;;;;;12.75;9.57;;;10.90;99.90;;;;;;4995982;28;20598;-74
2023/04/10 08:16:27;;;;;;;14.00;9.77;;;11.00;99.90;;;;;;4982764;28;20049;-75
2023/04/10 08:18:56;;;;;;;12.00;9.50;;;11.20;99.90;;;;;;5002658;28;20496;-75
2023/04/10 08:21:26;;;;;;;11.73;8.98;;;11.30;99.90;;;;;;4995239;28;20057;-74
2023/04/10 08:23:58;;;;;;;12.52;9.38;;;10.80;99.90;;;;;;5013356;28;20585;-73
2023/04/10 08:26:32;;;;;;;12.23;8.93;;;11.40;99.90;;;;;;5029006;28;20056;-73
2023/04/10 08:28:59;;;;;;;13.27;9.32;;;11.50;99.90;;;;;;5013252;28;20046;-75
2023/04/10 08:31:31;;;;;;;11.88;8.85;;;11.60;99.90;;;;;;5004091;28;20046;-74
2023/04/10 08:33:57;;;;;;;13.07;9.23;;;11.60;99.90;;;;;;5013379;28;20902;-74
2023/04/10 08:36:26;;;;;;;11.60;9.15;;;11.70;99.90;;;;;;5005774;28;20053;-75
2023/04/10 08:38:55;;;;;;;10.75;8.50;;;11.70;99.90;;;;;;5013225;28;20058;-74
2023/04/10 08:41:21;;;;;;;11.93;9.50;;;11.70;99.90;;;;;;5000038;28;20111;-74
2023/04/10 08:43:56;;;;;;;11.25;8.88;;;11.80;99.90;;;;;;5011453;28;20045;-74
2023/04/10 08:46:28;;;;;;;12.90;9.15;;;11.90;99.90;;;;;;5027887;28;20058;-74
2023/04/10 08:49:04;;;;;;;11.40;8.65;;;12.00;99.90;;;;;;4999847;28;20136;-73
2023/04/10 08:52:01;;;;;;;11.70;8.15;;;12.00;99.90;;;;;;4985655;28;20164;-73
2023/04/10 08:54:27;;;;;;;;;;;12.10;99.90;;;;;;4990994;28;20089;-74
2023/04/10 08:56:55;;;;;;;11.82;8.57;;;12.20;99.90;;;;;;5032093;28;19932;-75
2023/04/10 08:59:22;;;;;;;11.77;8.93;;;12.30;99.90;;;;;;5014330;28;20512;-72
2023/04/10 09:01:48;;;;;;;11.32;7.97;;;12.30;99.90;;;;;;4997922;28;20050;-73
2023/04/10 09:04:15;;;;;;;11.82;8.73;;;12.40;99.90;;;;;;5014585;28;20054;-74
2023/04/10 09:06:41;;;;;;;11.43;8.70;;;12.40;99.90;;;;;;4986531;28;20065;-74
2023/04/10 09:09:08;;;;;;;9.77;7.75;;;12.50;99.90;;;;;;4995512;28;20057;-73
2023/04/10 09:11:55;;;;;;;12.65;8.88;;;12.50;99.90;;;;;;4995478;28;20038;-73
2023/04/10 09:14:28;;;;;;;10.88;8.85;;;12.50;99.90;;;;;;5013879;28;20173;-74
2023/04/10 09:17:18;;;;;;;11.45;9.35;;;12.60;99.90;;;;;;4986288;28;20140;-73
2023/04/10 09:19:49;;;;;;;13.35;9.20;;;12.60;99.90;;;;;;5013743;28;20107;-73
2023/04/10 09:22:18;;;;;;;11.20;9.00;;;12.60;99.90;;;;;;5015390;28;20072;-72
2023/04/10 09:24:46;;;;;;;12.15;8.95;;;12.60;99.90;;;;;;5012854;28;20049;-74
2023/04/10 09:27:36;;;;;;;11.52;9.00;;;12.60;99.90;;;;;;5029108;28;20045;-74
2023/04/10 09:30:02;;;;;;;12.38;9.43;;;12.60;99.90;;;;;;5016089;28;20061;-74
2023/04/10 09:32:42;;;;;;;9.98;7.90;;;12.50;99.90;;;;;;5012925;28;20073;-74
2023/04/10 09:35:16;;;;;;;9.98;8.13;;;12.50;99.90;;;;;;4999106;28;20053;-74
2023/04/10 09:37:44;;;;;;;10.40;8.23;;;12.50;99.90;;;;;;4997759;28;20404;-73
2023/04/10 09:40:23;;;;;;;11.63;9.05;;;12.50;99.90;;;;;;5017058;28;20708;-75
2023/04/10 09:42:50;;;;;;;11.32;8.48;;;12.50;99.90;;;;;;4998538;28;20081;-73
2023/04/10 09:45:19;;;;;;;11.90;8.90;;;12.50;99.90;;;;;;4984574;28;20057;-72
2023/04/10 09:48:05;;;;;;;12.15;8.73;;;12.50;99.90;;;;;;4986219;28;20547;-73
2023/04/10 09:50:39;;;;;;;10.82;8.82;;;12.50;99.90;;;;;;5030972;28;20045;-73
2023/04/10 09:53:10;;;;;;;11.13;8.32;;;12.50;99.90;;;;;;4994781;28;20037;-75
2023/04/10 09:55:38;;;;;;;12.10;9.20;;;12.50;99.90;;;;;;5014718;28;20042;-78
2023/04/10 09:58:11;;;;;;;11.38;9.40;;;12.50;99.90;;;;;;5031477;28;20776;-79
2023/04/10 10:00:42;;;;;;;10.93;8.30;;;12.60;99.90;;;;;;5017049;28;20046;-80
2023/04/10 10:03:12;;;;;;;11.50;9.10;;;12.70;99.90;;;;;;4998554;28;20056;-78
2023/04/10 10:05:42;;;;;;;10.55;8.32;;;12.60;99.90;;;;;;5031049;28;20131;-74
2023/04/10 10:08:14;;;;;;;11.52;8.57;;;12.70;99.90;;;;;;5018709;28;20104;-78
2023/04/10 10:10:45;;;;;;;11.57;9.45;;;12.80;99.90;;;;;;5003844;28;20052;-76
2023/04/10 10:13:17;;;;;;;12.77;8.02;;;12.90;99.90;;;;;;5034122;28;20049;-78
2023/04/10 10:16:06;;;;;;;12.20;8.82;;;13.00;99.90;;;;;;5018038;28;20054;-77
2023/04/10 10:18:44;;;;;;;10.93;8.60;;;13.10;99.90;;;;;;5002635;28;20111;-75
2023/04/10 10:21:15;;;;;;;10.80;8.82;;;13.20;99.90;;;;;;5021638;28;20045;-76
2023/04/10 10:23:44;;;;;;;10.75;7.95;;;13.20;99.90;;;;;;4987242;28;20176;-76
2023/04/10 10:26:11;;;;;;;11.15;8.27;;;13.20;99.90;;;;;;5000393;28;20049;-75
2023/04/10 10:28:47;;;;;;;10.75;8.60;;;13.20;99.90;;;;;;5004628;28;20045;-76
2023/04/10 10:31:16;;;;;;;10.80;8.52;;;13.30;99.90;;;;;;5019013;28;21591;-75
2023/04/10 10:33:43;;;;;;;13.27;8.63;;;13.30;99.90;;;;;;5000518;28;20103;-74
2023/04/10 10:36:12;;;;;;;10.57;8.75;;;13.30;99.90;;;;;;5001487;28;20078;-75
2023/04/10 10:38:46;;;;;;;12.32;8.43;;;13.40;99.90;;;;;;5015646;28;20061;-74
2023/04/10 10:41:25;;;;;;;10.57;8.63;;;13.50;99.90;;;;;;5018396;28;20411;-73
2023/04/10 10:44:10;;;;;;;11.25;8.55;;;13.40;99.90;;;;;;5004497;28;20527;-74
2023/04/10 10:46:56;;;;;;;10.65;9.00;;;13.50;99.90;;;;;;5018707;28;20050;-73
2023/04/10 10:50:01;;;;;;;12.60;8.80;;;13.50;99.90;;;;;;5002967;28;20377;-72
2023/04/10 10:52:47;;;;;;;10.35;8.75;;;13.60;99.90;;;;;;5018443;28;20060;-77
2023/04/10 10:55:35;;;;;;;11.73;9.50;;;13.60;99.90;;;;;;5020385;28;20080;-75
2023/04/10 10:58:08;;;;;;;12.07;9.73;;;13.70;99.90;;;;;;5000927;28;20056;-74
2023/04/10 11:00:50;;;;;;;10.50;8.70;;;13.90;99.90;;;;;;5018307;28;20052;-74
2023/04/10 11:03:36;;;;;;;13.82;9.15;;;14.10;99.90;;;;;;5023011;28;20057;-74
2023/04/10 11:06:06;;;;;;;11.47;8.67;;;14.30;99.90;;;;;;5017893;28;20065;-74
2023/04/10 11:08:51;;;;;;;12.05;9.30;;;14.50;99.90;;;;;;5016193;28;20038;-74
2023/04/10 11:11:22;;;;;;;14.05;9.00;;;14.60;99.90;;;;;;5018734;28;20471;-75
2023/04/10 11:13:57;;;;;;;12.10;9.13;;;14.80;99.90;;;;;;5020635;28;20052;-72
2023/04/10 11:16:40;;;;;;;12.68;8.52;;;14.90;99.90;;;;;;5000223;28;20050;-73
2023/04/10 11:19:08;;;;;;;11.07;8.85;;;15.10;99.90;;;;;;5017411;28;20292;-75
2023/04/10 11:22:03;;;;;;;12.02;9.30;;;15.20;99.90;;;;;;5023046;28;20088;-74
2023/04/10 11:24:51;;;;;;;11.50;9.07;;;15.20;99.90;;;;;;5001869;28;20088;-75
2023/04/10 11:27:39;;;;;;;9.82;8.25;;;15.30;99.90;;;;;;5020025;28;20049;-73
2023/04/10 11:30:32;;;;;;;11.35;8.63;;;15.60;99.90;;;;;;5020174;28;20063;-75
2023/04/10 11:33:00;;;;;;;11.43;8.50;;;15.60;99.90;;;;;;4997091;28;20077;-73
2023/04/10 11:35:27;;;;;;;11.40;9.00;;;15.60;99.90;;;;;;5018875;28;20057;-73
2023/04/10 11:38:21;;;;;;;9.50;7.88;;;15.60;99.90;;;;;;4999651;28;20046;-73
2023/04/10 11:41:09;;;;;;;10.90;8.93;;;15.40;99.90;;;;;;5007034;28;20089;-73
2023/04/10 11:43:35;;;;;;;11.05;8.38;;;15.30;99.90;;;;;;5007768;28;20085;-73
2023/04/10 11:46:11;;;;;;;10.85;8.52;;;15.30;99.90;;;;;;4990977;28;20046;-73
2023/04/10 11:48:39;;;;;;;10.43;8.70;;;15.40;99.90;;;;;;5048240;28;20038;-74
2023/04/10 11:51:27;;;;;;;15.50;8.30;;;15.30;99.90;;;;;;5014829;28;20500;-74
2023/04/10 11:54:18;;;;;;;9.98;8.68;;;15.40;99.90;;;;;;5002120;28;20057;-73
2023/04/10 11:57:08;;;;;;;10.13;8.23;;;15.40;99.90;;;;;;5001842;28;21191;-75
2023/04/10 11:59:35;;;;;;;10.63;8.43;;;15.20;99.90;;;;;;5015219;28;20765;-74
2023/04/10 12:02:24;;;;;;;10.18;7.90;;;15.10;99.90;;;;;;5005869;28;20088;-76
2023/04/10 12:05:18;;;;;;;11.38;7.40;;;15.20;99.90;;;;;;4987607;28;20053;-73
2023/04/10 12:07:44;;;;;;;9.27;7.43;;;15.10;99.90;;;;;;5003362;28;20080;-75
2023/04/10 12:10:16;;;;;;;8.65;7.07;;;15.00;99.90;;;;;;5020332;28;20053;-74
2023/04/10 12:12:45;;;;;;;8.88;6.90;;;14.90;99.90;;;;;;5016382;28;20046;-74
2023/04/10 12:15:32;;;;;;;9.18;7.15;;;14.90;99.90;;;;;;5020020;28;20052;-75
2023/04/10 12:18:07;;;;;;;9.88;6.75;;;14.80;99.90;;;;;;5032105;28;20053;-75
2023/04/10 12:20:39;;;;;;;8.45;6.55;;;14.90;99.90;;;;;;5003968;28;20049;-73
2023/04/10 12:23:34;;;;;;;7.28;6.10;;;14.90;99.90;;;;;;5004031;28;20121;-74
2023/04/10 12:26:18;;;;;;;7.85;6.70;;;15.00;99.90;;;;;;5016128;28;20080;-74
2023/04/10 12:29:11;;;;;;;8.23;6.68;;;15.10;99.90;;;;;;5010231;28;20483;-74
2023/04/10 12:31:37;;;;;;;9.25;7.35;;;15.20;99.90;;;;;;4964849;28;20049;-74
2023/04/10 12:34:04;;;;;;;8.15;6.38;;;15.20;99.90;;;;;;5027975;28;20057;-72
2023/04/10 12:36:33;;;;;;;9.73;6.75;;;15.20;99.90;;;;;;5003366;28;20050;-73
2023/04/10 12:39:04;;;;;;;8.07;6.53;;;15.10;99.90;;;;;;4998512;28;20057;-73
2023/04/10 12:41:32;;;;;;;7.53;6.30;;;14.90;99.90;;;;;;4984018;28;20140;-73
2023/04/10 12:44:14;;;;;;;9.73;7.15;;;14.90;99.90;;;;;;5015416;28;20045;-73
2023/04/10 12:46:44;;;;;;;8.50;6.78;;;14.80;99.90;;;;;;4998228;28;20124;-72
2023/04/10 12:49:11;;;;;;;8.50;6.65;;;14.60;99.90;;;;;;5029019;28;20053;-74
2023/04/10 12:51:45;;;;;;;7.85;6.40;;;14.60;99.90;;;;;;5028687;28;20041;-73
2023/04/10 12:54:36;;;;;;;10.48;6.18;;;14.50;99.90;;;;;;5029550;28;20351;-73
2023/04/10 12:57:05;;;;;;;7.80;6.38;;;14.50;99.90;;;;;;5012306;28;20053;-73